sensor_id;sensor_type;location;lat;lon;timestamp;pressure;altitude;pressure_sealevel;temperature;humidity
54816;BME280;40715;55.752;37.884;2023-02-19T00:01:44;97443.09;;;24.58;22.30
54816;BME280;40715;55.752;37.884;2023-02-19T00:04:16;97434.38;;;24.56;22.03
54816;BME280;40715;55.752;37.884;2023-02-19T00:06:45;97423.97;;;24.53;22.81
54816;BME280;40715;55.752;37.884;2023-02-19T00:09:13;97426.00;;;24.51;22.59
54816;BME280;40715;55.752;37.884;2023-02-19T00:11:41;97415.22;;;24.51;22.76
54816;BME280;40715;55.752;37.884;2023-02-19T00:14:10;97416.44;;;24.49;23.44
54816;BME280;40715;55.752;37.884;2023-02-19T00:16:39;97413.94;;;24.47;22.91
54816;BME280;40715;55.752;37.884;2023-02-19T00:19:12;97408.03;;;24.43;22.84
54816;BME280;40715;55.752;37.884;2023-02-19T00:21:39;97407.88;;;24.45;22.57
54816;BME280;40715;55.752;37.884;2023-02-19T00:24:07;97410.09;;;24.41;22.74
54816;BME280;40715;55.752;37.884;2023-02-19T00:26:37;97402.16;;;24.40;22.56
54816;BME280;40715;55.752;37.884;2023-02-19T00:29:05;97405.88;;;24.39;22.44
54816;BME280;40715;55.752;37.884;2023-02-19T00:31:34;97404.38;;;24.36;22.31
54816;BME280;40715;55.752;37.884;2023-02-19T00:34:03;97402.69;;;24.35;22.74
54816;BME280;40715;55.752;37.884;2023-02-19T00:36:32;97401.88;;;24.35;22.73
54816;BME280;40715;55.752;37.884;2023-02-19T00:39:02;97399.19;;;24.35;23.56
54816;BME280;40715;55.752;37.884;2023-02-19T00:41:30;97398.81;;;24.38;23.28
54816;BME280;40715;55.752;37.884;2023-02-19T00:43:59;97399.31;;;24.41;22.40
54816;BME280;40715;55.752;37.884;2023-02-19T00:46:29;97398.59;;;24.47;23.05
54816;BME280;40715;55.752;37.884;2023-02-19T00:48:57;97397.72;;;24.55;23.74
54816;BME280;40715;55.752;37.884;2023-02-19T00:51:27;97389.44;;;24.57;22.93
54816;BME280;40715;55.752;37.884;2023-02-19T00:53:54;97393.81;;;24.66;22.58
54816;BME280;40715;55.752;37.884;2023-02-19T00:56:21;97384.72;;;24.67;22.45
54816;BME280;40715;55.752;37.884;2023-02-19T00:58:48;97382.50;;;24.71;22.69
54816;BME280;40715;55.752;37.884;2023-02-19T01:01:16;97386.88;;;24.72;22.26
54816;BME280;40715;55.752;37.884;2023-02-19T01:03:45;97380.47;;;24.73;22.58
54816;BME280;40715;55.752;37.884;2023-02-19T01:06:15;97377.78;;;24.73;24.51
54816;BME280;40715;55.752;37.884;2023-02-19T01:08:43;97377.97;;;24.71;23.11
54816;BME280;40715;55.752;37.884;2023-02-19T01:11:11;97380.31;;;24.74;22.68
54816;BME280;40715;55.752;37.884;2023-02-19T01:13:39;97383.81;;;24.75;22.26
54816;BME280;40715;55.752;37.884;2023-02-19T01:16:12;97362.47;;;24.73;22.40
54816;BME280;40715;55.752;37.884;2023-02-19T01:18:40;97369.53;;;24.74;22.78
54816;BME280;40715;55.752;37.884;2023-02-19T01:21:10;97366.34;;;24.71;21.62
54816;BME280;40715;55.752;37.884;2023-02-19T01:23:39;97361.13;;;24.69;22.02
54816;BME280;40715;55.752;37.884;2023-02-19T01:26:07;97355.28;;;24.66;22.34
54816;BME280;40715;55.752;37.884;2023-02-19T01:28:35;97346.91;;;24.60;22.09
54816;BME280;40715;55.752;37.884;2023-02-19T01:31:07;97349.22;;;24.63;22.41
54816;BME280;40715;55.752;37.884;2023-02-19T01:33:36;97344.84;;;24.62;22.27
54816;BME280;40715;55.752;37.884;2023-02-19T01:36:04;97339.16;;;24.57;22.01
54816;BME280;40715;55.752;37.884;2023-02-19T01:38:31;97343.88;;;24.55;21.85
54816;BME280;40715;55.752;37.884;2023-02-19T01:41:01;97339.72;;;24.53;21.20
54816;BME280;40715;55.752;37.884;2023-02-19T01:43:32;97339.03;;;24.51;21.41
54816;BME280;40715;55.752;37.884;2023-02-19T01:45:59;97339.38;;;24.47;21.50
54816;BME280;40715;55.752;37.884;2023-02-19T01:48:34;97336.88;;;24.46;21.55
54816;BME280;40715;55.752;37.884;2023-02-19T01:51:06;97331.84;;;24.43;21.18
54816;BME280;40715;55.752;37.884;2023-02-19T01:53:38;97338.44;;;24.40;21.09
54816;BME280;40715;55.752;37.884;2023-02-19T01:56:08;97343.13;;;24.38;21.15
54816;BME280;40715;55.752;37.884;2023-02-19T01:58:37;97337.47;;;24.33;22.03
54816;BME280;40715;55.752;37.884;2023-02-19T02:01:06;97334.78;;;24.33;21.40
54816;BME280;40715;55.752;37.884;2023-02-19T02:03:39;97335.97;;;24.30;21.19
54816;BME280;40715;55.752;37.884;2023-02-19T02:08:43;97328.63;;;24.24;21.47
54816;BME280;40715;55.752;37.884;2023-02-19T02:11:29;97327.09;;;24.22;21.56
54816;BME280;40715;55.752;37.884;2023-02-19T02:13:57;97333.31;;;24.22;22.48
54816;BME280;40715;55.752;37.884;2023-02-19T02:19:16;97326.72;;;24.33;22.52
54816;BME280;40715;55.752;37.884;2023-02-19T02:27:37;97321.31;;;24.64;21.28
54816;BME280;40715;55.752;37.884;2023-02-19T02:35:26;97312.44;;;24.56;20.81
54816;BME280;40715;55.752;37.884;2023-02-19T02:37:57;97309.72;;;24.56;20.95
54816;BME280;40715;55.752;37.884;2023-02-19T02:40:25;97319.47;;;24.57;21.22
54816;BME280;40715;55.752;37.884;2023-02-19T02:42:56;97317.81;;;24.56;21.40
54816;BME280;40715;55.752;37.884;2023-02-19T02:45:27;97311.94;;;24.52;21.42
54816;BME280;40715;55.752;37.884;2023-02-19T02:48:23;97315.91;;;24.64;21.50
54816;BME280;40715;55.752;37.884;2023-02-19T02:50:58;97307.03;;;24.56;21.13
54816;BME280;40715;55.752;37.884;2023-02-19T02:53:40;97317.81;;;24.56;21.02
54816;BME280;40715;55.752;37.884;2023-02-19T02:56:29;97323.72;;;24.51;21.20
54816;BME280;40715;55.752;37.884;2023-02-19T02:58:57;97321.38;;;24.48;21.15
54816;BME280;40715;55.752;37.884;2023-02-19T03:01:30;97309.78;;;24.47;22.20
54816;BME280;40715;55.752;37.884;2023-02-19T03:04:25;97306.91;;;24.49;21.96
54816;BME280;40715;55.752;37.884;2023-02-19T03:06:56;97306.41;;;24.45;21.11
54816;BME280;40715;55.752;37.884;2023-02-19T03:09:34;97303.09;;;24.43;20.83
54816;BME280;40715;55.752;37.884;2023-02-19T03:12:11;97296.19;;;24.41;21.09
54816;BME280;40715;55.752;37.884;2023-02-19T03:15:03;97291.81;;;24.40;22.59
54816;BME280;40715;55.752;37.884;2023-02-19T03:17:55;97300.25;;;24.37;22.14
54816;BME280;40715;55.752;37.884;2023-02-19T03:20:45;97290.69;;;24.34;22.25
54816;BME280;40715;55.752;37.884;2023-02-19T03:23:16;97292.09;;;24.30;22.09
54816;BME280;40715;55.752;37.884;2023-02-19T03:25:44;97290.59;;;24.27;22.47
54816;BME280;40715;55.752;37.884;2023-02-19T03:28:32;97294.28;;;24.26;22.16
54816;BME280;40715;55.752;37.884;2023-02-19T03:31:21;97290.75;;;24.26;21.84
54816;BME280;40715;55.752;37.884;2023-02-19T03:33:55;97274.19;;;24.14;22.02
54816;BME280;40715;55.752;37.884;2023-02-19T03:36:24;97275.84;;;24.15;21.42
54816;BME280;40715;55.752;37.884;2023-02-19T03:39:01;97283.75;;;24.17;21.79
54816;BME280;40715;55.752;37.884;2023-02-19T03:44:51;97281.06;;;24.40;21.91
54816;BME280;40715;55.752;37.884;2023-02-19T03:47:29;97283.22;;;24.21;22.77
54816;BME280;40715;55.752;37.884;2023-02-19T03:50:21;97262.69;;;24.28;22.74
54816;BME280;40715;55.752;37.884;2023-02-19T03:53:04;97271.94;;;24.26;21.89
54816;BME280;40715;55.752;37.884;2023-02-19T04:06:09;97263.31;;;24.54;22.15
54816;BME280;40715;55.752;37.884;2023-02-19T04:08:37;97269.88;;;24.51;22.02
54816;BME280;40715;55.752;37.884;2023-02-19T04:11:07;97252.91;;;24.51;22.44
54816;BME280;40715;55.752;37.884;2023-02-19T04:13:49;97254.22;;;24.55;22.59
54816;BME280;40715;55.752;37.884;2023-02-19T04:16:21;97265.44;;;24.58;23.00
54816;BME280;40715;55.752;37.884;2023-02-19T04:18:52;97270.81;;;24.58;21.47
54816;BME280;40715;55.752;37.884;2023-02-19T04:21:21;97256.91;;;24.55;23.56
54816;BME280;40715;55.752;37.884;2023-02-19T04:23:49;97269.16;;;24.57;21.99
54816;BME280;40715;55.752;37.884;2023-02-19T04:26:19;97262.94;;;24.57;21.47
54816;BME280;40715;55.752;37.884;2023-02-19T04:28:48;97262.94;;;24.57;21.94
54816;BME280;40715;55.752;37.884;2023-02-19T04:31:15;97270.19;;;24.56;22.83
54816;BME280;40715;55.752;37.884;2023-02-19T04:33:42;97270.19;;;24.56;21.46
54816;BME280;40715;55.752;37.884;2023-02-19T04:36:10;97252.53;;;24.54;21.25
54816;BME280;40715;55.752;37.884;2023-02-19T04:38:37;97257.91;;;24.54;21.31
54816;BME280;40715;55.752;37.884;2023-02-19T04:41:04;97255.78;;;24.49;22.45
54816;BME280;40715;55.752;37.884;2023-02-19T04:43:31;97253.09;;;24.49;21.74
54816;BME280;40715;55.752;37.884;2023-02-19T04:45:59;97253.63;;;24.44;21.46
54816;BME280;40715;55.752;37.884;2023-02-19T04:48:27;97253.63;;;24.44;21.40
54816;BME280;40715;55.752;37.884;2023-02-19T04:50:55;97249.63;;;24.40;21.97
54816;BME280;40715;55.752;37.884;2023-02-19T04:53:22;97243.56;;;24.38;22.11
54816;BME280;40715;55.752;37.884;2023-02-19T04:55:49;97236.72;;;24.36;22.27
54816;BME280;40715;55.752;37.884;2023-02-19T04:58:19;97247.16;;;24.30;21.17
54816;BME280;40715;55.752;37.884;2023-02-19T05:00:50;97243.84;;;24.28;21.58
54816;BME280;40715;55.752;37.884;2023-02-19T05:03:17;97244.84;;;24.27;22.07
54816;BME280;40715;55.752;37.884;2023-02-19T05:05:44;97245.41;;;24.23;21.78
54816;BME280;40715;55.752;37.884;2023-02-19T05:08:11;97235.47;;;24.23;22.41
54816;BME280;40715;55.752;37.884;2023-02-19T05:10:39;97242.84;;;24.21;22.01
54816;BME280;40715;55.752;37.884;2023-02-19T05:13:05;97239.88;;;24.16;21.57
54816;BME280;40715;55.752;37.884;2023-02-19T05:15:32;97239.03;;;24.16;21.97
54816;BME280;40715;55.752;37.884;2023-02-19T05:17:59;97241.91;;;24.14;22.49
54816;BME280;40715;55.752;37.884;2023-02-19T05:20:26;97241.06;;;24.13;22.17
54816;BME280;40715;55.752;37.884;2023-02-19T05:22:53;97233.00;;;24.13;22.02
54816;BME280;40715;55.752;37.884;2023-02-19T05:25:20;97228.25;;;24.16;21.64
54816;BME280;40715;55.752;37.884;2023-02-19T05:27:47;97226.63;;;24.15;21.42
54816;BME280;40715;55.752;37.884;2023-02-19T05:30:14;97223.88;;;24.23;21.92
54816;BME280;40715;55.752;37.884;2023-02-19T05:32:41;97221.47;;;24.28;22.87
54816;BME280;40715;55.752;37.884;2023-02-19T05:35:08;97223.25;;;24.36;22.28
54816;BME280;40715;55.752;37.884;2023-02-19T05:37:35;97225.03;;;24.43;21.91
54816;BME280;40715;55.752;37.884;2023-02-19T05:40:02;97228.22;;;24.47;22.18
54816;BME280;40715;55.752;37.884;2023-02-19T05:42:29;97221.28;;;24.53;22.83
54816;BME280;40715;55.752;37.884;2023-02-19T05:44:56;97226.28;;;24.56;22.29
54816;BME280;40715;55.752;37.884;2023-02-19T05:47:23;97224.25;;;24.58;22.33
54816;BME280;40715;55.752;37.884;2023-02-19T05:49:50;97225.06;;;24.58;22.20
54816;BME280;40715;55.752;37.884;2023-02-19T05:52:17;97225.59;;;24.62;22.43
54816;BME280;40715;55.752;37.884;2023-02-19T05:54:44;97209.94;;;24.57;21.91
54816;BME280;40715;55.752;37.884;2023-02-19T05:57:11;97225.59;;;24.62;22.43
54816;BME280;40715;55.752;37.884;2023-02-19T05:59:37;97211.47;;;24.60;22.90
54816;BME280;40715;55.752;37.884;2023-02-19T06:02:04;97219.56;;;24.60;22.84
54816;BME280;40715;55.752;37.884;2023-02-19T06:04:31;97219.56;;;24.60;21.52
54816;BME280;40715;55.752;37.884;2023-02-19T06:06:58;97210.97;;;24.56;21.58
54816;BME280;40715;55.752;37.884;2023-02-19T06:09:25;97215.72;;;24.54;21.96
54816;BME280;40715;55.752;37.884;2023-02-19T06:11:52;97206.50;;;24.49;21.61
54816;BME280;40715;55.752;37.884;2023-02-19T06:14:19;97202.97;;;24.48;22.19
54816;BME280;40715;55.752;37.884;2023-02-19T06:16:46;97211.03;;;24.48;21.91
54816;BME280;40715;55.752;37.884;2023-02-19T06:19:13;97196.75;;;24.47;21.49
54816;BME280;40715;55.752;37.884;2023-02-19T06:21:40;97213.72;;;24.48;21.34
54816;BME280;40715;55.752;37.884;2023-02-19T06:24:08;97205.84;;;24.46;21.39
54816;BME280;40715;55.752;37.884;2023-02-19T06:26:35;97210.38;;;24.46;21.14
54816;BME280;40715;55.752;37.884;2023-02-19T06:29:03;97206.38;;;24.42;21.29
54816;BME280;40715;55.752;37.884;2023-02-19T06:31:30;97205.72;;;24.40;21.05
54816;BME280;40715;55.752;37.884;2023-02-19T06:33:58;97209.25;;;24.40;21.45
54816;BME280;40715;55.752;37.884;2023-02-19T06:36:25;97201.38;;;24.39;21.37
54816;BME280;40715;55.752;37.884;2023-02-19T06:38:52;97200.06;;;24.35;21.49
54816;BME280;40715;55.752;37.884;2023-02-19T06:41:19;97193.47;;;24.37;21.90
54816;BME280;40715;55.752;37.884;2023-02-19T06:43:46;97200.06;;;24.35;22.29
54816;BME280;40715;55.752;37.884;2023-02-19T06:46:13;97191.97;;;24.35;22.32
54816;BME280;40715;55.752;37.884;2023-02-19T06:48:43;97201.06;;;24.34;22.23
54816;BME280;40715;55.752;37.884;2023-02-19T06:51:12;97200.06;;;24.35;22.25
54816;BME280;40715;55.752;37.884;2023-02-19T06:53:39;97185.59;;;24.36;21.78
54816;BME280;40715;55.752;37.884;2023-02-19T06:56:26;97193.75;;;24.42;21.82
54816;BME280;40715;55.752;37.884;2023-02-19T06:58:59;97190.41;;;24.40;22.21
54816;BME280;40715;55.752;37.884;2023-02-19T07:01:28;97185.31;;;24.45;21.82
54816;BME280;40715;55.752;37.884;2023-02-19T07:03:55;97174.03;;;24.50;22.12
54816;BME280;40715;55.752;37.884;2023-02-19T07:06:23;97183.69;;;24.59;23.01
54816;BME280;40715;55.752;37.884;2023-02-19T07:08:51;97182.81;;;24.67;23.32
54816;BME280;40715;55.752;37.884;2023-02-19T07:11:18;97172.13;;;24.74;22.51
54816;BME280;40715;55.752;37.884;2023-02-19T07:13:45;97177.59;;;24.80;22.20
54816;BME280;40715;55.752;37.884;2023-02-19T07:16:14;97175.03;;;24.87;21.50
54816;BME280;40715;55.752;37.884;2023-02-19T07:18:42;97168.78;;;24.87;21.59
54816;BME280;40715;55.752;37.884;2023-02-19T07:21:11;97173.25;;;24.94;21.15
54816;BME280;40715;55.752;37.884;2023-02-19T07:23:39;97168.06;;;24.93;21.69
54816;BME280;40715;55.752;37.884;2023-02-19T07:26:17;97168.13;;;24.99;21.95
54816;BME280;40715;55.752;37.884;2023-02-19T07:28:47;97163.97;;;24.97;22.44
54816;BME280;40715;55.752;37.884;2023-02-19T07:31:15;97165.00;;;24.96;21.71
54816;BME280;40715;55.752;37.884;2023-02-19T07:33:43;97167.50;;;24.97;22.03
54816;BME280;40715;55.752;37.884;2023-02-19T07:36:11;97165.81;;;24.96;22.26
54816;BME280;40715;55.752;37.884;2023-02-19T07:38:39;97166.66;;;24.97;22.81
54816;BME280;40715;55.752;37.884;2023-02-19T07:41:06;97165.63;;;24.98;22.65
54816;BME280;40715;55.752;37.884;2023-02-19T07:43:35;97164.81;;;24.97;22.01
54816;BME280;40715;55.752;37.884;2023-02-19T07:46:08;97156.72;;;24.97;22.22
54816;BME280;40715;55.752;37.884;2023-02-19T07:48:36;97155.03;;;24.96;22.20
54816;BME280;40715;55.752;37.884;2023-02-19T07:51:06;97139.81;;;24.89;22.32
54816;BME280;40715;55.752;37.884;2023-02-19T07:53:34;97166.19;;;24.93;22.84
54816;BME280;40715;55.752;37.884;2023-02-19T07:56:04;97155.59;;;24.92;22.71
54816;BME280;40715;55.752;37.884;2023-02-19T07:58:32;97150.59;;;24.89;23.31
54816;BME280;40715;55.752;37.884;2023-02-19T08:01:07;97145.03;;;24.90;23.79
54816;BME280;40715;55.752;37.884;2023-02-19T08:03:37;97146.91;;;24.90;22.41
54816;BME280;40715;55.752;37.884;2023-02-19T08:06:04;97144.91;;;24.84;22.08
54816;BME280;40715;55.752;37.884;2023-02-19T08:08:32;97144.28;;;24.81;22.00
54816;BME280;40715;55.752;37.884;2023-02-19T08:11:04;97124.03;;;24.71;21.72
54816;BME280;40715;55.752;37.884;2023-02-19T08:13:50;97133.22;;;24.76;22.43
54816;BME280;40715;55.752;37.884;2023-02-19T08:16:19;97133.13;;;24.70;22.39
54816;BME280;40715;55.752;37.884;2023-02-19T08:19:02;97136.66;;;24.70;21.75
54816;BME280;40715;55.752;37.884;2023-02-19T08:21:29;97125.16;;;24.61;21.56
54816;BME280;40715;55.752;37.884;2023-02-19T08:23:58;97138.94;;;24.58;22.74
54816;BME280;40715;55.752;37.884;2023-02-19T08:26:25;97131.22;;;24.55;22.63
54816;BME280;40715;55.752;37.884;2023-02-19T08:28:52;97126.69;;;24.56;22.65
54816;BME280;40715;55.752;37.884;2023-02-19T08:31:19;97133.53;;;24.58;21.71
54816;BME280;40715;55.752;37.884;2023-02-19T08:33:46;97135.75;;;24.63;23.01
54816;BME280;40715;55.752;37.884;2023-02-19T08:36:13;97133.31;;;24.68;23.23
54816;BME280;40715;55.752;37.884;2023-02-19T08:38:40;97127.00;;;24.76;23.24
54816;BME280;40715;55.752;37.884;2023-02-19T08:41:11;97127.28;;;24.81;22.95
54816;BME280;40715;55.752;37.884;2023-02-19T08:43:40;97132.19;;;24.92;24.42
54816;BME280;40715;55.752;37.884;2023-02-19T08:46:08;97129.59;;;24.99;22.94
54816;BME280;40715;55.752;37.884;2023-02-19T08:48:36;97119.31;;;25.03;22.21
54816;BME280;40715;55.752;37.884;2023-02-19T08:51:06;97123.72;;;25.10;22.06
54816;BME280;40715;55.752;37.884;2023-02-19T08:53:38;97118.81;;;25.14;21.91
54816;BME280;40715;55.752;37.884;2023-02-19T08:56:12;97116.13;;;25.14;21.91
54816;BME280;40715;55.752;37.884;2023-02-19T08:58:40;97117.03;;;25.21;21.89
54816;BME280;40715;55.752;37.884;2023-02-19T09:01:12;97112.47;;;25.22;21.21
54816;BME280;40715;55.752;37.884;2023-02-19T09:03:40;97109.78;;;25.22;21.36
54816;BME280;40715;55.752;37.884;2023-02-19T09:06:18;97109.88;;;25.28;21.05
54816;BME280;40715;55.752;37.884;2023-02-19T09:08:45;97103.19;;;25.24;21.12
54816;BME280;40715;55.752;37.884;2023-02-19T09:11:12;97112.09;;;25.25;21.86
54816;BME280;40715;55.752;37.884;2023-02-19T09:13:40;97108.38;;;25.26;21.24
54816;BME280;40715;55.752;37.884;2023-02-19T09:16:08;97111.28;;;25.24;21.18
54816;BME280;40715;55.752;37.884;2023-02-19T09:18:35;97104.00;;;25.25;21.40
54816;BME280;40715;55.752;37.884;2023-02-19T09:21:04;97108.78;;;25.23;22.07
54816;BME280;40715;55.752;37.884;2023-02-19T09:23:32;97100.69;;;25.23;22.49
54816;BME280;40715;55.752;37.884;2023-02-19T09:26:00;97097.31;;;25.21;23.55
54816;BME280;40715;55.752;37.884;2023-02-19T09:28:29;97095.28;;;25.23;22.72
54816;BME280;40715;55.752;37.884;2023-02-19T09:30:56;97094.91;;;25.26;23.28
54816;BME280;40715;55.752;37.884;2023-02-19T09:33:23;97091.56;;;25.24;22.67
54816;BME280;40715;55.752;37.884;2023-02-19T09:35:49;97087.66;;;25.26;22.43
54816;BME280;40715;55.752;37.884;2023-02-19T09:38:16;97072.25;;;25.20;22.37
54816;BME280;40715;55.752;37.884;2023-02-19T09:40:44;97080.72;;;25.17;22.98
54816;BME280;40715;55.752;37.884;2023-02-19T09:43:16;97078.84;;;25.18;21.99
54816;BME280;40715;55.752;37.884;2023-02-19T09:45:44;97075.53;;;25.15;22.75
54816;BME280;40715;55.752;37.884;2023-02-19T09:48:11;97074.03;;;25.13;22.10
54816;BME280;40715;55.752;37.884;2023-02-19T09:50:41;97066.06;;;25.05;21.30
54816;BME280;40715;55.752;37.884;2023-02-19T09:53:23;97078.91;;;25.03;22.20
54816;BME280;40715;55.752;37.884;2023-02-19T09:55:51;97071.94;;;24.93;22.39
54816;BME280;40715;55.752;37.884;2023-02-19T09:58:29;97066.53;;;24.93;21.86
54816;BME280;40715;55.752;37.884;2023-02-19T10:01:00;97064.22;;;24.90;22.74
54816;BME280;40715;55.752;37.884;2023-02-19T10:03:31;97061.16;;;24.93;21.84
54816;BME280;40715;55.752;37.884;2023-02-19T10:06:04;97050.97;;;24.89;21.50
54816;BME280;40715;55.752;37.884;2023-02-19T10:08:35;97059.03;;;24.89;21.76
54816;BME280;40715;55.752;37.884;2023-02-19T10:11:04;97054.94;;;24.93;22.38
54816;BME280;40715;55.752;37.884;2023-02-19T10:13:36;97052.69;;;24.96;21.53
54816;BME280;40715;55.752;37.884;2023-02-19T10:16:08;97057.06;;;24.97;21.45
54816;BME280;40715;55.752;37.884;2023-02-19T10:18:40;97057.59;;;25.08;21.30
54816;BME280;40715;55.752;37.884;2023-02-19T10:21:19;97055.63;;;25.16;21.56
54816;BME280;40715;55.752;37.884;2023-02-19T10:23:51;97048.00;;;25.20;21.38
54816;BME280;40715;55.752;37.884;2023-02-19T10:26:21;97056.16;;;25.27;21.66
54816;BME280;40715;55.752;37.884;2023-02-19T10:28:48;97052.94;;;25.31;21.35
54816;BME280;40715;55.752;37.884;2023-02-19T10:31:18;97055.25;;;25.35;21.13
54816;BME280;40715;55.752;37.884;2023-02-19T10:33:57;97054.03;;;25.37;21.17
54816;BME280;40715;55.752;37.884;2023-02-19T10:36:32;97060.03;;;25.39;21.36
54816;BME280;40715;55.752;37.884;2023-02-19T10:39:01;97048.63;;;25.37;21.10
54816;BME280;40715;55.752;37.884;2023-02-19T10:41:29;97040.75;;;25.36;20.36
54816;BME280;40715;55.752;37.884;2023-02-19T10:44:13;97046.06;;;25.50;20.85
54816;BME280;40715;55.752;37.884;2023-02-19T10:46:44;97050.75;;;25.42;20.74
54816;BME280;40715;55.752;37.884;2023-02-19T10:49:34;97047.53;;;25.53;21.59
54816;BME280;40715;55.752;37.884;2023-02-19T10:52:20;97037.53;;;25.47;21.25
54816;BME280;40715;55.752;37.884;2023-02-19T10:55:13;97049.06;;;25.41;20.92
54816;BME280;40715;55.752;37.884;2023-02-19T10:57:40;97053.84;;;25.39;21.66
54816;BME280;40715;55.752;37.884;2023-02-19T11:03:21;97044.53;;;25.41;21.56
54816;BME280;40715;55.752;37.884;2023-02-19T11:06:01;97049.84;;;25.35;20.96
54816;BME280;40715;55.752;37.884;2023-02-19T11:08:30;97050.41;;;25.30;21.19
54816;BME280;40715;55.752;37.884;2023-02-19T11:11:01;97054.09;;;25.29;21.15
54816;BME280;40715;55.752;37.884;2023-02-19T11:13:31;97042.03;;;25.25;21.24
54816;BME280;40715;55.752;37.884;2023-02-19T11:15:58;97039.34;;;25.25;21.16
54816;BME280;40715;55.752;37.884;2023-02-19T11:18:28;97039.72;;;25.22;20.75
54816;BME280;40715;55.752;37.884;2023-02-19T11:21:06;97029.78;;;25.22;21.05
54816;BME280;40715;55.752;37.884;2023-02-19T11:23:44;97031.19;;;25.18;21.04
54816;BME280;40715;55.752;37.884;2023-02-19T11:26:18;97034.53;;;25.20;20.72
54816;BME280;40715;55.752;37.884;2023-02-19T11:28:55;97039.94;;;25.20;21.27
54816;BME280;40715;55.752;37.884;2023-02-19T11:31:32;97038.53;;;25.24;21.20
54816;BME280;40715;55.752;37.884;2023-02-19T11:34:13;97029.72;;;25.15;21.14
54816;BME280;40715;55.752;37.884;2023-02-19T11:37:10;97036.03;;;25.23;21.80
54816;BME280;40715;55.752;37.884;2023-02-19T11:39:40;97036.31;;;25.13;20.79
54816;BME280;40715;55.752;37.884;2023-02-19T11:42:32;97025.44;;;25.21;21.11
54816;BME280;40715;55.752;37.884;2023-02-19T11:45:36;97022.09;;;25.19;20.79
54816;BME280;40715;55.752;37.884;2023-02-19T11:53:30;97022.28;;;25.18;21.78
54816;BME280;40715;55.752;37.884;2023-02-19T11:59:16;97007.81;;;25.40;21.02
54816;BME280;40715;55.752;37.884;2023-02-19T12:16:32;97027.69;;;25.61;20.05
54816;BME280;40715;55.752;37.884;2023-02-19T12:24:15;97019.22;;;25.42;20.15
54816;BME280;40715;55.752;37.884;2023-02-19T12:29:42;97017.28;;;25.51;20.13
54816;BME280;40715;55.752;37.884;2023-02-19T12:43:20;97014.00;;;25.19;19.73
54816;BME280;40715;55.752;37.884;2023-02-19T12:46:13;97017.00;;;25.31;19.92
54816;BME280;40715;55.752;37.884;2023-02-19T12:49:11;97021.31;;;25.25;21.14
54816;BME280;40715;55.752;37.884;2023-02-19T12:51:47;97024.69;;;25.12;21.45
54816;BME280;40715;55.752;37.884;2023-02-19T12:54:28;97019.31;;;25.12;21.08
54816;BME280;40715;55.752;37.884;2023-02-19T12:57:10;97017.56;;;25.05;21.32
54816;BME280;40715;55.752;37.884;2023-02-19T12:59:46;97017.28;;;24.99;20.98
54816;BME280;40715;55.752;37.884;2023-02-19T13:02:36;97018.28;;;25.13;21.10
54816;BME280;40715;55.752;37.884;2023-02-19T13:06:02;97016.09;;;25.02;20.92
54816;BME280;40715;55.752;37.884;2023-02-19T13:10:57;97023.38;;;24.87;20.96
54816;BME280;40715;55.752;37.884;2023-02-19T13:13:34;97023.38;;;24.87;22.06
54816;BME280;40715;55.752;37.884;2023-02-19T13:16:11;97019.22;;;24.84;21.36
54816;BME280;40715;55.752;37.884;2023-02-19T13:18:47;97028.31;;;24.83;21.54
54816;BME280;40715;55.752;37.884;2023-02-19T13:21:18;97027.44;;;24.83;21.98
54816;BME280;40715;55.752;37.884;2023-02-19T13:24:11;97026.06;;;24.87;21.27
54816;BME280;40715;55.752;37.884;2023-02-19T13:26:44;97028.84;;;24.93;20.91
54816;BME280;40715;55.752;37.884;2023-02-19T13:32:20;97019.63;;;25.03;21.18
54816;BME280;40715;55.752;37.884;2023-02-19T13:34:59;97021.75;;;25.07;20.75
54816;BME280;40715;55.752;37.884;2023-02-19T13:37:33;97011.81;;;25.08;20.88
54816;BME280;40715;55.752;37.884;2023-02-19T13:40:05;97015.59;;;25.13;20.51
54816;BME280;40715;55.752;37.884;2023-02-19T13:42:53;97005.28;;;25.17;20.45
54816;BME280;40715;55.752;37.884;2023-02-19T13:45:31;97015.69;;;25.20;21.94
54816;BME280;40715;55.752;37.884;2023-02-19T13:48:25;97021.56;;;25.30;22.38
54816;BME280;40715;55.752;37.884;2023-02-19T13:59:32;97015.84;;;25.33;21.11
54816;BME280;40715;55.752;37.884;2023-02-19T14:17:04;97006.59;;;25.06;20.65
54816;BME280;40715;55.752;37.884;2023-02-19T14:30:56;96998.81;;;24.96;21.36
54816;BME280;40715;55.752;37.884;2023-02-19T14:33:36;96984.56;;;24.81;21.73
54816;BME280;40715;55.752;37.884;2023-02-19T14:36:35;96994.78;;;24.86;22.76
54816;BME280;40715;55.752;37.884;2023-02-19T14:39:14;96996.91;;;24.75;24.45
54816;BME280;40715;55.752;37.884;2023-02-19T14:41:55;96971.34;;;24.64;23.26
54816;BME280;40715;55.752;37.884;2023-02-19T14:44:26;96996.88;;;24.69;22.68
54816;BME280;40715;55.752;37.884;2023-02-19T14:49:38;96991.66;;;24.67;24.38
54816;BME280;40715;55.752;37.884;2023-02-19T14:55:24;96980.63;;;24.62;24.24
54816;BME280;40715;55.752;37.884;2023-02-19T14:57:54;96984.13;;;24.62;23.77
54816;BME280;40715;55.752;37.884;2023-02-19T15:02:56;96982.09;;;24.64;23.73
54816;BME280;40715;55.752;37.884;2023-02-19T15:05:27;96979.84;;;24.68;24.05
54816;BME280;40715;55.752;37.884;2023-02-19T15:07:58;96985.13;;;24.76;24.66
54816;BME280;40715;55.752;37.884;2023-02-19T15:10:27;96988.09;;;24.81;25.75
54816;BME280;40715;55.752;37.884;2023-02-19T15:13:02;96983.81;;;24.87;23.56
54816;BME280;40715;55.752;37.884;2023-02-19T15:15:35;96985.56;;;24.95;23.72
54816;BME280;40715;55.752;37.884;2023-02-19T15:18:04;96983.53;;;24.97;24.20
54816;BME280;40715;55.752;37.884;2023-02-19T15:20:35;96980.44;;;25.00;24.00